Time;durP1;ratioP1;P1;durP2;ratioP2;P2;SDS_P1;SDS_P2;PMS_P1;PMS_P2;Temp;Humidity;BMP_temperature;BMP_pressure;BME280_temperature;BME280_humidity;BME280_pressure;Samples;Min_cycle;Max_cycle;Signal;HPM_P1;HPM_P2
2021/01/03 00:01:10;;;;;;;11.07;8.53;;;2.40;99.90;;;;;;4932857;29;20476;-72
2021/01/03 00:03:37;;;;;;;13.03;9.60;;;2.30;99.90;;;;;;4934003;29;20441;-71
2021/01/03 00:06:04;;;;;;;15.03;9.20;;;2.30;99.90;;;;;;4934069;29;20492;-70
2021/01/03 00:08:30;;;;;;;11.50;8.90;;;2.30;99.90;;;;;;4933006;29;20825;-71
2021/01/03 00:10:55;;;;;;;9.93;8.90;;;2.20;99.90;;;;;;4934176;29;20437;-71
2021/01/03 00:13:21;;;;;;;11.87;8.97;;;2.10;99.90;;;;;;4933761;29;20289;-71
2021/01/03 00:15:47;;;;;;;10.90;8.77;;;2.20;99.90;;;;;;4933955;29;20705;-69
2021/01/03 00:18:12;;;;;;;11.30;9.27;;;2.20;99.90;;;;;;4932948;29;20722;-72
2021/01/03 00:20:38;;;;;;;9.73;8.07;;;2.20;99.90;;;;;;4933931;29;20667;-71
2021/01/03 00:23:04;;;;;;;11.63;8.33;;;2.20;99.90;;;;;;4933885;29;20173;-71
2021/01/03 00:25:30;;;;;;;12.50;10.30;;;2.20;99.90;;;;;;4933822;29;20256;-71
2021/01/03 00:27:56;;;;;;;12.87;8.70;;;2.10;99.90;;;;;;4932773;29;20621;-72
2021/01/03 00:30:25;;;;;;;10.27;8.27;;;2.20;99.90;;;;;;4933231;29;20429;-70
2021/01/03 00:32:51;;;;;;;11.60;8.77;;;2.10;99.90;;;;;;4933639;29;20845;-71
2021/01/03 00:35:24;;;;;;;8.40;7.50;;;2.00;99.90;;;;;;4933321;29;20487;-72
2021/01/03 00:37:49;;;;;;;11.77;9.33;;;2.00;99.90;;;;;;4932762;29;20932;-70
2021/01/03 00:40:20;;;;;;;9.77;8.77;;;2.00;99.90;;;;;;4933154;29;20429;-71
2021/01/03 00:42:45;;;;;;;9.37;7.60;;;2.10;99.90;;;;;;4933616;29;20229;-70
2021/01/03 00:45:12;;;;;;;11.10;8.33;;;2.10;99.90;;;;;;4933320;29;20417;-71
2021/01/03 00:47:38;;;;;;;11.00;8.90;;;2.10;99.90;;;;;;4933162;29;20693;-71
2021/01/03 00:50:07;;;;;;;10.10;7.70;;;2.10;99.90;;;;;;4933172;29;20449;-71
2021/01/03 00:52:33;;;;;;;11.40;8.37;;;2.20;99.90;;;;;;4932880;29;20429;-71
2021/01/03 00:54:58;;;;;;;9.90;7.87;;;2.20;99.90;;;;;;4933120;29;20523;-71
2021/01/03 00:57:24;;;;;;;11.00;9.03;;;2.30;99.90;;;;;;4932963;29;20188;-71
2021/01/03 00:59:49;;;;;;;10.57;9.57;;;2.30;99.90;;;;;;4931394;29;20857;-70
2021/01/03 01:02:15;;;;;;;11.87;8.93;;;2.30;99.90;;;;;;4933050;29;20675;-71
2021/01/03 01:04:41;;;;;;;13.20;8.83;;;2.30;99.90;;;;;;4931538;29;20285;-71
2021/01/03 01:07:06;;;;;;;9.90;8.07;;;2.20;99.90;;;;;;4932063;29;20189;-71
2021/01/03 01:09:31;;;;;;;11.23;9.07;;;2.20;99.90;;;;;;4931862;29;20194;-72
2021/01/03 01:11:57;;;;;;;10.80;8.70;;;2.10;99.90;;;;;;4933117;29;20633;-71
2021/01/03 01:14:23;;;;;;;11.13;8.37;;;2.10;99.90;;;;;;4932656;29;20185;-70
2021/01/03 01:16:49;;;;;;;13.10;8.70;;;2.10;99.90;;;;;;4932703;29;20201;-70
2021/01/03 01:19:15;;;;;;;9.57;8.23;;;2.20;99.90;;;;;;4931681;29;20496;-71
2021/01/03 01:21:40;;;;;;;11.33;8.30;;;2.10;99.90;;;;;;4932612;29;20173;-71
2021/01/03 01:24:06;;;;;;;10.10;8.87;;;2.10;99.90;;;;;;4932389;29;20201;-71
2021/01/03 01:26:32;;;;;;;8.77;7.67;;;2.00;99.90;;;;;;4932226;29;20620;-72
2021/01/03 01:28:57;;;;;;;9.43;8.43;;;2.10;99.90;;;;;;4931124;29;20549;-71
2021/01/03 01:31:23;;;;;;;11.77;9.27;;;2.10;99.90;;;;;;4932380;29;20228;-71
2021/01/03 01:33:48;;;;;;;11.67;8.50;;;2.10;99.90;;;;;;4932377;29;20233;-71
2021/01/03 01:36:14;;;;;;;13.30;9.40;;;2.10;99.90;;;;;;4931937;29;20241;-71
2021/01/03 01:38:39;;;;;;;12.47;9.00;;;2.10;99.90;;;;;;4931479;29;20591;-71
2021/01/03 01:41:05;;;;;;;9.53;8.10;;;2.20;99.90;;;;;;4932090;29;20602;-72
2021/01/03 01:43:31;;;;;;;11.10;9.10;;;2.10;99.90;;;;;;4932237;29;20686;-71
2021/01/03 01:45:57;;;;;;;10.33;9.20;;;2.10;99.90;;;;;;4932038;29;20189;-71
2021/01/03 01:48:30;;;;;;;10.80;8.70;;;2.10;99.90;;;;;;4931376;29;20480;-71
2021/01/03 01:50:59;;;;;;;14.80;8.90;;;2.20;99.90;;;;;;4932228;29;20418;-71
2021/01/03 01:53:40;;;;;;;10.40;8.43;;;2.20;99.90;;;;;;4932190;29;20425;-69
2021/01/03 01:56:13;;;;;;;12.40;10.03;;;2.10;99.90;;;;;;4932244;29;20552;-72
2021/01/03 01:58:49;;;;;;;11.20;10.10;;;2.10;99.90;;;;;;4930969;29;20962;-71
2021/01/03 02:01:20;;;;;;;12.07;9.87;;;2.10;99.90;;;;;;4930898;29;20791;-72
2021/01/03 02:03:54;;;;;;;10.57;9.40;;;2.10;99.90;;;;;;4931657;29;20816;-71
2021/01/03 02:06:28;;;;;;;11.20;9.30;;;2.00;99.90;;;;;;4931940;29;20472;-72
2021/01/03 02:09:01;;;;;;;11.73;8.70;;;2.00;99.90;;;;;;4930817;29;20879;-73
2021/01/03 02:11:29;;;;;;;15.50;9.80;;;2.00;99.90;;;;;;4931679;29;20426;-71
2021/01/03 02:13:58;;;;;;;10.90;8.83;;;2.10;99.90;;;;;;4931718;29;20421;-71
2021/01/03 02:16:29;;;;;;;10.33;9.30;;;2.00;99.90;;;;;;4931693;29;20476;-71
2021/01/03 02:18:55;;;;;;;9.90;8.87;;;2.10;99.90;;;;;;4930536;29;20444;-72
2021/01/03 02:21:45;;;;;;;9.77;8.70;;;2.00;99.90;;;;;;4931894;29;20805;-72
2021/01/03 02:24:25;;;;;;;11.03;9.53;;;1.90;99.90;;;;;;4931342;29;20429;-70
2021/01/03 02:26:59;;;;;;;12.10;8.97;;;1.90;99.90;;;;;;4931554;29;20424;-71
2021/01/03 02:29:28;;;;;;;12.77;10.40;;;2.00;99.90;;;;;;4930547;29;20473;-72
2021/01/03 02:31:56;;;;;;;12.87;10.17;;;2.00;99.90;;;;;;4931492;29;20426;-71
2021/01/03 02:34:35;;;;;;;15.60;10.07;;;2.00;99.90;;;;;;4931647;29;20435;-71
2021/01/03 02:37:08;;;;;;;12.93;11.47;;;1.90;99.90;;;;;;4931054;29;20465;-72
2021/01/03 02:39:50;;;;;;;11.00;9.80;;;1.90;99.90;;;;;;4930520;29;20453;-71
2021/01/03 02:42:21;;;;;;;11.27;10.17;;;1.90;99.90;;;;;;4931060;29;20452;-71
2021/01/03 02:44:47;;;;;;;14.50;12.10;;;1.80;99.90;;;;;;4931151;29;20429;-72
2021/01/03 02:47:13;;;;;;;13.70;10.90;;;1.80;99.90;;;;;;4931079;29;20417;-70
2021/01/03 02:49:38;;;;;;;14.23;9.93;;;1.80;99.90;;;;;;4930514;29;20229;-71
2021/01/03 02:52:09;;;;;;;11.70;9.70;;;1.90;99.90;;;;;;4930883;29;20460;-71
2021/01/03 02:54:35;;;;;;;12.83;11.03;;;1.90;99.90;;;;;;4930977;29;20616;-71
2021/01/03 02:57:01;;;;;;;12.03;10.37;;;1.90;99.90;;;;;;4930714;29;20555;-70
2021/01/03 02:59:27;;;;;;;13.73;11.90;;;1.90;99.90;;;;;;4930214;29;20726;-71
2021/01/03 03:01:53;;;;;;;13.57;10.83;;;1.80;99.90;;;;;;4929918;29;20178;-70
2021/01/03 03:04:18;;;;;;;14.00;11.67;;;1.80;99.90;;;;;;4930421;29;20428;-72
2021/01/03 03:06:44;;;;;;;14.00;11.03;;;1.90;99.90;;;;;;4930774;29;20601;-70
2021/01/03 03:09:10;;;;;;;16.23;12.33;;;1.80;99.90;;;;;;4929832;29;20198;-71
2021/01/03 03:11:35;;;;;;;14.63;11.30;;;1.80;99.90;;;;;;4930794;29;20174;-69
2021/01/03 03:14:01;;;;;;;14.50;12.57;;;1.90;99.90;;;;;;4930793;29;20208;-71
2021/01/03 03:16:27;;;;;;;16.80;12.67;;;1.90;99.90;;;;;;4930957;29;20205;-71
2021/01/03 03:18:52;;;;;;;14.80;12.43;;;1.90;99.90;;;;;;4928505;29;20541;-70
2021/01/03 03:21:21;;;;;;;18.17;12.73;;;1.90;99.90;;;;;;4930938;29;20209;-70
2021/01/03 03:23:47;;;;;;;15.47;12.00;;;1.90;99.90;;;;;;4929905;29;20184;-70
2021/01/03 03:26:13;;;;;;;13.03;11.60;;;1.90;99.90;;;;;;4930735;29;20508;-71
2021/01/03 03:28:39;;;;;;;16.17;12.63;;;1.90;99.90;;;;;;4928483;29;20580;-71
2021/01/03 03:31:06;;;;;;;15.13;12.27;;;1.90;99.90;;;;;;4930112;29;20428;-70
2021/01/03 03:33:31;;;;;;;16.70;12.60;;;1.90;99.90;;;;;;4930936;29;20268;-71
2021/01/03 03:35:57;;;;;;;18.57;13.43;;;1.90;99.90;;;;;;4930455;29;20576;-71
2021/01/03 03:38:22;;;;;;;15.63;11.87;;;1.90;99.90;;;;;;4928707;29;20643;-70
2021/01/03 03:40:48;;;;;;;16.03;13.10;;;1.80;99.90;;;;;;4930979;29;20209;-71
2021/01/03 03:43:14;;;;;;;15.93;12.60;;;1.80;99.90;;;;;;4930720;29;20181;-71
2021/01/03 03:45:39;;;;;;;14.97;11.67;;;1.70;99.90;;;;;;4930892;29;20182;-70
2021/01/03 03:48:06;;;;;;;14.30;11.30;;;1.70;99.90;;;;;;4929973;29;20237;-70
2021/01/03 03:50:31;;;;;;;13.57;11.50;;;1.60;99.90;;;;;;4929465;29;20186;-71
2021/01/03 03:52:57;;;;;;;15.73;12.57;;;1.50;99.90;;;;;;4930774;29;20849;-70
2021/01/03 03:55:23;;;;;;;16.90;13.07;;;1.60;99.90;;;;;;4930663;29;20879;-70
2021/01/03 03:57:48;;;;;;;13.90;11.73;;;1.50;99.90;;;;;;4929811;29;20432;-71
2021/01/03 04:00:18;;;;;;;16.20;12.80;;;1.50;99.90;;;;;;4929356;29;20555;-71
2021/01/03 04:02:44;;;;;;;14.50;12.30;;;1.50;99.90;;;;;;4930579;29;20188;-71
2021/01/03 04:05:15;;;;;;;14.90;12.57;;;1.50;99.90;;;;;;4929878;29;20437;-71
2021/01/03 04:07:41;;;;;;;18.30;13.80;;;1.50;99.90;;;;;;4929569;29;20429;-71
2021/01/03 04:10:07;;;;;;;16.50;12.70;;;1.60;99.90;;;;;;4929883;29;20962;-71
2021/01/03 04:12:34;;;;;;;14.93;12.13;;;1.60;99.90;;;;;;4930212;29;20178;-71
2021/01/03 04:15:02;;;;;;;14.30;12.70;;;1.50;99.90;;;;;;4929905;29;21160;-70
2021/01/03 04:17:28;;;;;;;15.90;12.10;;;1.50;99.90;;;;;;4930328;29;20913;-70
2021/01/03 04:19:53;;;;;;;18.30;14.40;;;1.60;99.90;;;;;;4929524;29;20433;-71
2021/01/03 04:22:19;;;;;;;16.03;13.30;;;1.60;99.90;;;;;;4930359;29;20213;-71
2021/01/03 04:24:44;;;;;;;16.77;12.80;;;1.60;99.90;;;;;;4930391;29;20189;-70
2021/01/03 04:27:10;;;;;;;15.10;12.90;;;1.70;99.90;;;;;;4930077;29;20224;-70
2021/01/03 04:29:36;;;;;;;15.67;13.07;;;1.70;99.90;;;;;;4929525;29;20249;-72
2021/01/03 04:32:05;;;;;;;15.70;13.10;;;1.70;99.90;;;;;;4930361;29;20201;-70
2021/01/03 04:34:32;;;;;;;16.70;12.80;;;1.70;99.90;;;;;;4930418;29;20437;-70
2021/01/03 04:36:59;;;;;;;16.90;12.13;;;1.70;99.90;;;;;;4930186;29;20886;-69
2021/01/03 04:39:26;;;;;;;14.57;12.90;;;1.60;99.90;;;;;;4929553;29;20870;-71
2021/01/03 04:42:06;;;;;;;14.53;12.90;;;1.60;99.90;;;;;;4930238;29;20445;-70
2021/01/03 04:44:37;;;;;;;17.00;12.57;;;1.60;99.90;;;;;;4933293;29;20456;-71
2021/01/03 04:47:06;;;;;;;14.83;12.43;;;1.60;99.90;;;;;;4933263;29;20441;-70
2021/01/03 04:49:40;;;;;;;16.80;12.73;;;1.60;99.90;;;;;;4932760;29;20544;-70
2021/01/03 04:52:44;;;;;;;15.93;12.63;;;1.60;99.90;;;;;;4933472;29;20946;-71
2021/01/03 04:55:19;;;;;;;15.20;11.63;;;1.60;99.90;;;;;;4915204;29;20515;-69
2021/01/03 04:58:15;;;;;;;15.80;11.00;;;1.60;99.90;;;;;;4932636;29;20452;-71
2021/01/03 05:00:53;;;;;;;15.40;12.30;;;1.60;99.90;;;;;;4929805;29;20441;-71
2021/01/03 05:03:19;;;;;;;15.83;12.03;;;1.60;99.90;;;;;;4932828;29;20428;-71
2021/01/03 05:05:47;;;;;;;14.93;12.00;;;1.50;99.90;;;;;;4932641;29;20504;-71
2021/01/03 05:08:49;;;;;;;15.13;12.40;;;1.50;99.90;;;;;;4932111;29;20221;-71
2021/01/03 05:11:19;;;;;;;18.43;12.07;;;1.60;99.90;;;;;;4932888;29;20452;-71
2021/01/03 05:14:03;;;;;;;18.77;12.70;;;1.50;99.90;;;;;;4932987;29;20436;-70
2021/01/03 05:16:29;;;;;;;13.27;11.20;;;1.50;99.90;;;;;;4932794;29;20509;-71
2021/01/03 05:18:54;;;;;;;16.20;12.97;;;1.40;99.90;;;;;;4932383;29;20472;-69
2021/01/03 05:21:20;;;;;;;17.23;13.87;;;1.50;99.90;;;;;;4932889;29;20178;-71
2021/01/03 05:24:02;;;;;;;14.27;11.70;;;1.50;99.90;;;;;;4933050;29;20174;-71
2021/01/03 05:26:31;;;;;;;15.23;12.10;;;1.60;99.90;;;;;;4932390;29;20193;-71
2021/01/03 05:28:57;;;;;;;14.30;11.70;;;1.60;99.90;;;;;;4931187;29;20499;-70
2021/01/03 05:31:24;;;;;;;14.57;12.30;;;1.60;99.90;;;;;;4932409;29;20963;-70
2021/01/03 05:34:00;;;;;;;16.20;11.40;;;1.60;99.90;;;;;;4932619;29;20922;-70
2021/01/03 05:36:35;;;;;;;14.80;11.93;;;1.50;99.90;;;;;;4932337;29;20500;-69
2021/01/03 05:39:09;;;;;;;16.00;12.10;;;1.50;99.90;;;;;;4931411;29;20524;-69
2021/01/03 05:41:56;;;;;;;14.80;12.23;;;1.40;99.90;;;;;;4932333;29;20426;-70
2021/01/03 05:44:26;;;;;;;15.30;11.67;;;1.40;99.90;;;;;;4932053;29;20497;-70
2021/01/03 05:47:01;;;;;;;14.90;11.60;;;1.40;99.90;;;;;;4932294;29;20429;-70
2021/01/03 05:49:27;;;;;;;17.20;12.73;;;1.50;99.90;;;;;;4931397;29;20448;-69
2021/01/03 05:52:16;;;;;;;17.57;13.90;;;1.40;99.90;;;;;;4930834;29;20484;-69
2021/01/03 05:54:42;;;;;;;18.57;13.57;;;1.30;99.90;;;;;;4931591;29;20943;-70
2021/01/03 05:57:17;;;;;;;18.30;13.23;;;1.40;99.90;;;;;;4931902;29;20464;-70
2021/01/03 05:59:45;;;;;;;17.00;13.57;;;1.40;99.90;;;;;;4929914;29;20241;-70
2021/01/03 06:02:21;;;;;;;15.30;12.57;;;1.30;99.90;;;;;;4931912;29;20433;-70
2021/01/03 06:04:46;;;;;;;17.30;13.07;;;1.40;99.90;;;;;;4931527;29;20774;-70
2021/01/03 06:07:26;;;;;;;19.17;13.37;;;1.30;99.90;;;;;;4931718;29;20757;-70
2021/01/03 06:09:52;;;;;;;18.50;13.80;;;1.30;99.90;;;;;;4930715;29;20694;-70
2021/01/03 06:12:22;;;;;;;19.33;14.20;;;1.30;99.90;;;;;;4931729;29;20500;-70
2021/01/03 06:14:55;;;;;;;18.80;13.33;;;1.30;99.90;;;;;;4932008;29;20178;-70
2021/01/03 06:17:30;;;;;;;19.07;14.07;;;1.30;99.90;;;;;;4930174;29;20445;-70
2021/01/03 06:20:17;;;;;;;18.53;13.93;;;1.30;99.90;;;;;;4931200;29;20556;-70
2021/01/03 06:22:49;;;;;;;20.10;15.30;;;1.30;99.90;;;;;;4931519;29;20445;-70
2021/01/03 06:25:42;;;;;;;18.97;13.60;;;1.30;99.90;;;;;;4931588;29;20422;-70
2021/01/03 06:28:33;;;;;;;18.87;14.37;;;1.40;99.90;;;;;;4930278;29;20441;-69
2021/01/03 06:31:04;;;;;;;17.40;14.30;;;1.40;99.90;;;;;;4931544;29;20484;-70
2021/01/03 06:33:58;;;;;;;20.07;14.30;;;1.50;99.90;;;;;;4931026;29;20970;-70
2021/01/03 06:36:58;;;;;;;20.33;15.63;;;1.50;99.90;;;;;;4931333;29;20465;-69
2021/01/03 06:39:38;;;;;;;19.87;15.43;;;1.50;99.90;;;;;;4928919;29;20449;-70
2021/01/03 06:42:25;;;;;;;18.10;14.43;;;1.50;99.90;;;;;;4931245;29;20973;-69
2021/01/03 06:45:22;;;;;;;17.17;12.80;;;1.50;99.90;;;;;;4930777;29;20791;-70
2021/01/03 06:48:21;;;;;;;19.83;15.63;;;1.30;99.90;;;;;;4930498;29;20421;-70
2021/01/03 06:51:14;;;;;;;15.93;12.43;;;1.30;99.90;;;;;;4931143;29;21077;-70
2021/01/03 06:54:24;;;;;;;18.97;13.20;;;1.30;99.90;;;;;;4930854;29;20515;-69
2021/01/03 06:57:17;;;;;;;22.03;15.70;;;1.30;99.90;;;;;;4926105;29;20836;-70
2021/01/03 06:59:51;;;;;;;20.97;16.33;;;1.40;99.90;;;;;;4928843;29;20449;-71
2021/01/03 07:02:19;;;;;;;20.10;15.07;;;1.40;99.90;;;;;;4930809;29;20424;-70
2021/01/03 07:04:45;;;;;;;17.93;13.03;;;1.50;99.90;;;;;;4930266;29;20433;-70
2021/01/03 07:07:17;;;;;;;18.90;14.83;;;1.50;99.90;;;;;;4930343;29;20429;-70
2021/01/03 07:09:55;;;;;;;17.90;14.10;;;1.60;99.90;;;;;;4929759;29;20236;-69
2021/01/03 07:12:48;;;;;;;18.33;12.80;;;1.60;99.90;;;;;;4930714;29;20425;-70
2021/01/03 07:15:26;;;;;;;20.20;15.40;;;1.70;99.90;;;;;;4929845;29;20568;-69
2021/01/03 07:17:54;;;;;;;20.87;14.67;;;1.60;99.90;;;;;;4929946;29;20733;-69
2021/01/03 07:20:53;;;;;;;21.10;14.73;;;1.60;99.90;;;;;;4930673;29;20429;-69
2021/01/03 07:23:55;;;;;;;18.40;14.07;;;1.70;99.90;;;;;;4930262;29;20553;-70
2021/01/03 07:26:31;;;;;;;20.67;14.30;;;1.60;99.90;;;;;;4919020;29;20432;-69
2021/01/03 07:29:01;;;;;;;22.70;15.97;;;1.60;99.90;;;;;;4929430;29;20467;-70
2021/01/03 07:31:41;;;;;;;21.17;16.10;;;1.50;99.90;;;;;;4930403;29;20437;-69
2021/01/03 07:34:26;;;;;;;18.23;14.27;;;1.50;99.90;;;;;;4928963;29;20472;-70
2021/01/03 07:36:57;;;;;;;19.07;13.97;;;1.60;99.90;;;;;;4930356;29;20850;-70
2021/01/03 07:39:30;;;;;;;17.13;13.00;;;1.60;99.90;;;;;;4929369;29;20845;-69
2021/01/03 07:42:24;;;;;;;18.97;13.80;;;1.70;99.90;;;;;;4930412;29;20488;-69
2021/01/03 07:44:51;;;;;;;19.17;14.00;;;1.70;99.90;;;;;;4929907;29;20795;-69
2021/01/03 07:47:39;;;;;;;18.30;14.73;;;1.70;99.90;;;;;;4930188;29;20425;-70
2021/01/03 07:50:17;;;;;;;18.57;13.97;;;1.70;99.90;;;;;;4929690;29;20458;-70
2021/01/03 07:52:48;;;;;;;18.67;13.87;;;1.80;99.90;;;;;;4929760;29;20429;-69
2021/01/03 07:55:23;;;;;;;19.17;13.27;;;1.80;99.90;;;;;;4929628;29;20485;-70
2021/01/03 07:58:05;;;;;;;17.50;14.27;;;1.90;99.90;;;;;;4929252;29;20729;-70
2021/01/03 08:00:36;;;;;;;18.30;14.10;;;1.80;99.90;;;;;;4927920;29;21043;-70
2021/01/03 08:03:18;;;;;;;20.80;15.70;;;1.80;99.90;;;;;;4930066;29;20428;-69
2021/01/03 08:05:45;;;;;;;27.83;20.60;;;1.70;99.90;;;;;;4929800;29;20429;-70
2021/01/03 08:08:18;;;;;;;19.80;14.30;;;1.80;99.90;;;;;;4925240;29;20510;-69
2021/01/03 08:10:46;;;;;;;17.23;14.50;;;1.90;99.90;;;;;;4917758;29;20436;-70
2021/01/03 08:13:21;;;;;;;16.83;14.33;;;1.80;99.90;;;;;;4929571;29;20440;-70
2021/01/03 08:15:47;;;;;;;23.10;15.83;;;1.90;99.90;;;;;;4929746;29;20464;-70
2021/01/03 08:18:14;;;;;;;20.00;16.17;;;1.90;99.90;;;;;;4931723;29;20444;-70
2021/01/03 08:20:40;;;;;;;18.90;14.07;;;1.90;99.90;;;;;;4933375;29;20469;-70
2021/01/03 08:23:20;;;;;;;22.57;15.63;;;2.00;99.90;;;;;;4933127;29;20480;-70
2021/01/03 08:25:46;;;;;;;19.20;12.87;;;2.00;99.90;;;;;;4933462;29;20185;-70
2021/01/03 08:28:20;;;;;;;18.73;14.07;;;2.00;99.90;;;;;;4932359;29;20472;-70
2021/01/03 08:30:48;;;;;;;17.97;13.90;;;2.00;99.90;;;;;;4933433;29;20435;-70
2021/01/03 08:33:23;;;;;;;19.07;14.00;;;1.90;99.90;;;;;;4933168;29;20656;-70
2021/01/03 08:35:49;;;;;;;19.00;13.93;;;1.90;99.90;;;;;;4933457;29;20460;-69
2021/01/03 08:38:23;;;;;;;19.40;14.00;;;1.90;99.90;;;;;;4932252;29;20811;-70
2021/01/03 08:40:48;;;;;;;17.73;13.30;;;1.90;99.90;;;;;;4933178;29;20252;-70
2021/01/03 08:43:20;;;;;;;17.87;13.37;;;1.90;99.90;;;;;;4933198;29;20564;-69
2021/01/03 08:45:49;;;;;;;18.70;14.00;;;2.00;99.90;;;;;;4932923;29;20185;-70
2021/01/03 08:48:24;;;;;;;21.10;15.87;;;2.00;99.90;;;;;;4932330;29;20452;-70
2021/01/03 08:51:11;;;;;;;16.47;12.60;;;2.00;99.90;;;;;;4932725;29;20479;-69
2021/01/03 08:53:38;;;;;;;18.07;12.20;;;2.10;99.90;;;;;;4933343;29;20828;-70
2021/01/03 08:56:15;;;;;;;13.70;12.23;;;2.20;99.90;;;;;;4933045;29;20543;-70
2021/01/03 08:58:41;;;;;;;19.33;12.07;;;2.20;99.90;;;;;;4932526;29;20472;-70
2021/01/03 09:01:20;;;;;;;16.13;12.60;;;2.20;99.90;;;;;;4933173;29;20468;-70
2021/01/03 09:03:50;;;;;;;15.67;11.30;;;2.10;99.90;;;;;;4933107;29;20457;-70
2021/01/03 09:06:16;;;;;;;15.13;10.40;;;2.20;99.90;;;;;;4933058;29;20428;-70
2021/01/03 09:08:44;;;;;;;17.50;14.00;;;2.30;99.90;;;;;;4932355;29;20449;-70
2021/01/03 09:11:31;;;;;;;14.33;11.67;;;2.20;99.90;;;;;;4932889;29;21009;-70
2021/01/03 09:14:16;;;;;;;18.97;13.17;;;2.30;99.90;;;;;;4933000;29;20428;-70
2021/01/03 09:17:05;;;;;;;16.87;12.17;;;2.40;99.90;;;;;;4932438;29;20468;-69
2021/01/03 09:19:45;;;;;;;16.80;12.10;;;2.50;99.90;;;;;;4931842;29;20500;-70
2021/01/03 09:22:21;;;;;;;15.73;12.47;;;2.40;99.90;;;;;;4932607;29;20452;-71
2021/01/03 09:24:47;;;;;;;16.33;11.43;;;2.40;99.90;;;;;;4932674;29;20413;-70
2021/01/03 09:27:12;;;;;;;16.30;11.73;;;2.30;99.90;;;;;;4932489;29;20428;-70
2021/01/03 09:29:39;;;;;;;13.17;10.73;;;2.40;99.90;;;;;;4930868;29;20301;-69
2021/01/03 09:32:22;;;;;;;12.67;10.10;;;2.60;99.90;;;;;;4932436;29;20184;-71
2021/01/03 09:35:01;;;;;;;11.93;9.70;;;2.70;99.90;;;;;;4932257;29;20856;-70
2021/01/03 09:37:33;;;;;;;11.03;9.40;;;2.60;99.90;;;;;;4932635;29;20958;-69
2021/01/03 09:40:38;;;;;;;14.27;10.80;;;2.70;99.90;;;;;;4931646;29;20497;-69
2021/01/03 09:43:19;;;;;;;13.90;11.10;;;2.80;99.90;;;;;;4928948;29;20592;-69
2021/01/03 09:46:03;;;;;;;13.07;11.60;;;2.80;99.90;;;;;;4931882;29;20413;-70
2021/01/03 09:48:33;;;;;;;14.13;10.77;;;2.80;99.90;;;;;;4931395;29;20451;-69
2021/01/03 09:51:29;;;;;;;13.60;12.20;;;2.80;99.90;;;;;;4931888;29;20424;-70
2021/01/03 09:54:07;;;;;;;12.27;9.90;;;2.70;99.90;;;;;;4932071;29;20492;-70
2021/01/03 09:56:37;;;;;;;13.67;10.60;;;2.60;99.90;;;;;;4932083;29;21021;-69
2021/01/03 09:59:29;;;;;;;12.67;10.87;;;2.60;99.90;;;;;;4931901;29;20445;-69
2021/01/03 10:01:54;;;;;;;13.83;10.80;;;2.70;99.90;;;;;;4930791;29;20970;-70
2021/01/03 10:04:21;;;;;;;14.00;10.37;;;2.80;99.90;;;;;;4931466;29;20453;-70
2021/01/03 10:06:51;;;;;;;12.70;11.07;;;2.70;99.90;;;;;;4931262;29;20182;-70
2021/01/03 10:09:22;;;;;;;13.43;10.53;;;2.90;99.90;;;;;;4931191;29;20446;-70
2021/01/03 10:11:49;;;;;;;13.03;10.63;;;3.00;99.90;;;;;;4931230;29;20823;-70
2021/01/03 10:14:36;;;;;;;14.70;10.73;;;3.10;99.90;;;;;;4931602;29;20437;-70
2021/01/03 10:17:13;;;;;;;13.53;11.70;;;3.10;99.90;;;;;;4931181;29;20496;-70
2021/01/03 10:19:39;;;;;;;14.60;10.87;;;2.90;99.90;;;;;;4930634;29;20437;-69
2021/01/03 10:22:05;;;;;;;11.43;10.23;;;3.00;99.90;;;;;;4931291;29;20444;-70
2021/01/03 10:24:30;;;;;;;14.20;11.30;;;3.00;99.90;;;;;;4931365;29;20249;-70
2021/01/03 10:27:05;;;;;;;12.80;10.33;;;3.00;99.90;;;;;;4931307;29;20249;-70
2021/01/03 10:29:32;;;;;;;15.50;12.10;;;2.90;99.90;;;;;;4929220;29;20298;-70
2021/01/03 10:31:58;;;;;;;16.10;11.90;;;3.00;99.90;;;;;;4931564;29;20808;-69
2021/01/03 10:34:24;;;;;;;16.60;11.47;;;3.00;99.90;;;;;;4931361;29;20775;-69
2021/01/03 10:36:53;;;;;;;15.00;12.40;;;3.00;99.90;;;;;;4931195;29;20472;-70
2021/01/03 10:39:18;;;;;;;13.67;11.93;;;3.10;99.90;;;;;;4930646;29;20441;-69
2021/01/03 10:41:46;;;;;;;13.53;11.13;;;3.00;99.90;;;;;;4930136;29;20421;-69
2021/01/03 10:44:12;;;;;;;12.97;10.93;;;3.00;99.90;;;;;;4931297;29;20178;-69
2021/01/03 10:46:39;;;;;;;12.73;11.00;;;2.90;99.90;;;;;;4930561;29;20436;-69
2021/01/03 10:49:07;;;;;;;13.23;10.50;;;2.80;99.90;;;;;;4930503;29;20472;-69
2021/01/03 10:51:38;;;;;;;13.17;11.27;;;3.00;99.90;;;;;;4931002;29;20998;-69
2021/01/03 10:54:06;;;;;;;15.53;11.80;;;3.10;99.90;;;;;;4931256;29;20515;-70
2021/01/03 10:56:32;;;;;;;12.50;10.70;;;3.00;99.90;;;;;;4930470;29;20492;-69
2021/01/03 10:58:57;;;;;;;14.43;11.77;;;3.10;99.90;;;;;;4930277;29;20441;-70
2021/01/03 11:01:24;;;;;;;14.60;11.87;;;3.10;99.90;;;;;;4928675;29;20775;-69
2021/01/03 11:03:50;;;;;;;12.30;9.67;;;2.90;99.90;;;;;;4930770;29;20192;-69
2021/01/03 11:06:16;;;;;;;16.03;12.60;;;2.80;99.90;;;;;;4930334;29;20429;-69
2021/01/03 11:08:42;;;;;;;20.53;12.80;;;2.80;99.90;;;;;;4928255;29;20530;-70
2021/01/03 11:11:07;;;;;;;14.50;12.70;;;2.80;99.90;;;;;;4930087;29;20181;-69
2021/01/03 11:13:34;;;;;;;13.60;10.70;;;2.80;99.90;;;;;;4930480;29;20256;-70
2021/01/03 11:16:00;;;;;;;13.70;10.83;;;2.90;99.90;;;;;;4930166;29;20294;-70
2021/01/03 11:18:25;;;;;;;15.60;11.97;;;2.90;99.90;;;;;;4929340;29;20453;-70
2021/01/03 11:20:51;;;;;;;15.17;12.23;;;3.00;99.90;;;;;;4930542;29;20188;-70
2021/01/03 11:23:18;;;;;;;14.20;12.53;;;3.10;99.90;;;;;;4930729;29;20686;-70
2021/01/03 11:25:45;;;;;;;16.27;11.80;;;3.20;99.90;;;;;;4930214;29;20856;-70
2021/01/03 11:28:13;;;;;;;13.67;11.83;;;3.30;99.90;;;;;;4929940;29;20505;-70
2021/01/03 11:30:38;;;;;;;12.87;11.17;;;3.30;99.90;;;;;;4929820;29;20896;-69
2021/01/03 11:33:04;;;;;;;13.10;11.60;;;3.40;99.90;;;;;;4930328;29;20519;-70
2021/01/03 11:35:29;;;;;;;17.50;12.27;;;3.10;99.90;;;;;;4929990;29;20240;-70
2021/01/03 11:37:55;;;;;;;17.37;12.40;;;3.10;99.90;;;;;;4929654;29;20280;-69
2021/01/03 11:40:21;;;;;;;16.27;12.33;;;3.10;99.90;;;;;;4930350;29;20170;-68
2021/01/03 11:42:46;;;;;;;14.30;10.97;;;3.10;99.90;;;;;;4930689;29;20169;-70
2021/01/03 11:45:16;;;;;;;17.83;13.33;;;3.10;99.90;;;;;;4930487;29;20593;-71
2021/01/03 11:47:42;;;;;;;17.27;12.53;;;3.20;99.90;;;;;;4929609;29;20277;-69
2021/01/03 11:50:13;;;;;;;16.73;13.77;;;3.20;99.90;;;;;;4930304;29;20494;-69
2021/01/03 11:52:39;;;;;;;15.40;12.87;;;3.10;99.90;;;;;;4932097;29;20185;-69
2021/01/03 11:55:08;;;;;;;15.97;13.00;;;3.20;99.90;;;;;;4934232;29;20417;-69
2021/01/03 11:57:34;;;;;;;14.60;12.73;;;3.30;99.90;;;;;;4933538;29;20421;-69
2021/01/03 11:59:59;;;;;;;14.60;12.30;;;3.40;99.90;;;;;;4931992;29;21041;-70
2021/01/03 12:02:28;;;;;;;16.07;12.50;;;3.40;99.90;;;;;;4933802;29;20174;-71
2021/01/03 12:04:53;;;;;;;15.67;12.97;;;3.50;99.90;;;;;;4934104;29;20174;-69
2021/01/03 12:07:20;;;;;;;17.33;12.43;;;3.50;99.90;;;;;;4933753;29;21036;-70
2021/01/03 12:09:47;;;;;;;17.33;12.43;;;3.40;99.90;;;;;;4932938;29;20303;-69
2021/01/03 12:12:16;;;;;;;13.87;11.73;;;3.30;99.90;;;;;;4933584;29;20437;-70
2021/01/03 12:14:42;;;;;;;18.00;12.80;;;3.30;99.90;;;;;;4933710;29;20417;-69
2021/01/03 12:17:10;;;;;;;18.43;12.80;;;3.40;99.90;;;;;;4933487;29;20464;-70
2021/01/03 12:19:36;;;;;;;14.40;12.80;;;3.40;99.90;;;;;;4933001;29;20201;-70
2021/01/03 12:22:04;;;;;;;14.87;13.13;;;3.50;99.90;;;;;;4933638;29;20506;-70
2021/01/03 12:24:30;;;;;;;14.63;12.50;;;3.40;99.90;;;;;;4933515;29;20543;-71
2021/01/03 12:26:56;;;;;;;13.20;11.70;;;3.30;99.90;;;;;;4933458;29;20438;-70
2021/01/03 12:29:24;;;;;;;14.70;12.83;;;3.40;99.90;;;;;;4932584;28;20473;-69
2021/01/03 12:31:52;;;;;;;14.40;11.80;;;3.50;99.90;;;;;;4933575;29;20541;-69
2021/01/03 12:34:21;;;;;;;16.40;12.00;;;3.50;99.90;;;;;;4934044;29;20433;-69
2021/01/03 12:36:47;;;;;;;14.80;11.77;;;3.50;99.90;;;;;;4933409;28;20477;-70
2021/01/03 12:39:14;;;;;;;13.20;11.40;;;3.40;99.90;;;;;;4932855;28;20452;-70
2021/01/03 12:41:40;;;;;;;13.10;11.70;;;3.40;99.90;;;;;;4933069;29;20178;-69
2021/01/03 12:44:06;;;;;;;15.80;12.40;;;3.40;99.90;;;;;;4933547;29;20424;-69
2021/01/03 12:46:42;;;;;;;15.40;12.60;;;3.50;99.90;;;;;;4932792;29;20173;-69
2021/01/03 12:49:08;;;;;;;17.67;13.13;;;3.40;99.90;;;;;;4932485;29;20449;-70
2021/01/03 12:51:34;;;;;;;18.63;14.17;;;3.50;99.90;;;;;;4932655;29;21089;-69
2021/01/03 12:54:00;;;;;;;14.07;12.47;;;3.40;99.90;;;;;;4933078;29;20429;-69
2021/01/03 12:56:28;;;;;;;16.10;13.90;;;3.40;99.90;;;;;;4932699;29;20471;-70
2021/01/03 12:58:55;;;;;;;15.73;13.50;;;3.30;99.90;;;;;;4931935;29;20185;-70